createdAt,value
2018-07-17T00:02:41.643Z,100724.42
2018-07-17T00:07:36.770Z,100718.46
2018-07-17T00:12:31.240Z,100724.61
2018-07-17T00:17:26.489Z,100729.06
2018-07-17T00:22:21.632Z,100726.31
2018-07-17T00:27:16.110Z,100717.88
2018-07-17T00:32:10.636Z,100724.61
2018-07-17T00:37:05.198Z,100723.59
2018-07-17T00:41:59.783Z,100724.94
2018-07-17T00:46:54.288Z,100729.67
2018-07-17T00:51:49.108Z,100728.18
2018-07-17T00:56:44.028Z,100726.83
2018-07-17T01:01:44.009Z,100723.78
2018-07-17T01:06:44.430Z,100717.58
2018-07-17T01:11:44.412Z,100711.49
2018-07-17T01:16:39.553Z,100713.62
2018-07-17T01:21:33.989Z,100712.10
2018-07-17T01:26:28.629Z,100716.59
2018-07-17T01:31:23.518Z,100712.16
2018-07-17T01:36:18.029Z,100725.05
2018-07-17T01:41:12.548Z,100732.28
2018-07-17T01:46:07.044Z,100725.05
2018-07-17T01:51:01.577Z,100716.80
2018-07-17T01:55:56.945Z,100722.80
2018-07-17T02:00:51.557Z,100719.41
2018-07-17T02:05:45.932Z,100718.59
2018-07-17T02:10:40.501Z,100709.86
2018-07-17T02:15:35.152Z,100713.09
2018-07-17T02:20:29.696Z,100716.68
2018-07-17T02:25:24.305Z,100701.74
2018-07-17T02:30:18.920Z,100697.22
2018-07-17T02:35:13.543Z,100698.90
2018-07-17T02:40:08.427Z,100693.67
2018-07-17T02:45:03.134Z,100693.49
2018-07-17T02:49:57.765Z,100689.39
2018-07-17T02:54:52.328Z,100687.23
2018-07-17T02:59:46.895Z,100695.63
2018-07-17T03:04:41.660Z,100710.90
2018-07-17T03:09:36.313Z,100721.47
2018-07-17T03:14:30.850Z,100745.17
2018-07-17T03:19:25.576Z,100757.71
2018-07-17T03:24:20.208Z,100757.23
2018-07-17T03:29:14.770Z,100755.06
2018-07-17T03:34:09.249Z,100786.42
2018-07-17T03:39:03.894Z,100777.00
2018-07-17T03:43:58.486Z,100769.11
2018-07-17T03:48:53.055Z,100777.18
2018-07-17T03:53:47.661Z,100776.19
2018-07-17T03:58:42.184Z,100767.89
2018-07-17T04:03:37.290Z,100769.86
2018-07-17T04:08:32.136Z,100774.37
2018-07-17T04:13:27.089Z,100779.82
2018-07-17T04:18:21.988Z,100781.12
2018-07-17T04:23:16.582Z,100775.55
2018-07-17T04:28:11.160Z,100781.73
2018-07-17T04:33:05.991Z,100790.97
2018-07-17T04:38:00.506Z,100797.25
2018-07-17T04:42:55.066Z,100803.06
2018-07-17T04:47:49.710Z,100800.38
2018-07-17T04:52:45.109Z,100802.75
2018-07-17T04:57:41.456Z,100803.78
2018-07-17T05:02:36.466Z,100807.80
2018-07-17T05:07:31.222Z,100823.56
2018-07-17T05:12:25.680Z,100826.70
2018-07-17T05:17:20.575Z,100833.03
2018-07-17T05:22:16.924Z,100838.47
2018-07-17T05:27:13.458Z,100834.48
2018-07-17T05:32:08.104Z,100833.11
2018-07-17T05:37:02.754Z,100837.47
2018-07-17T05:41:57.449Z,100836.91
2018-07-17T05:46:52.489Z,100839.91
2018-07-17T05:51:47.751Z,100847.31
2018-07-17T05:56:42.901Z,100853.73
2018-07-17T06:01:37.779Z,100847.41
2018-07-17T06:06:32.760Z,100845.20
2018-07-17T06:11:27.880Z,100852.23
2018-07-17T06:16:22.792Z,100852.41
2018-07-17T06:21:17.826Z,100857.13
2018-07-17T06:26:12.883Z,100865.42
2018-07-17T06:31:07.809Z,100868.78
2018-07-17T06:36:02.716Z,100868.44
2018-07-17T06:40:57.921Z,100875.58
2018-07-17T06:45:52.914Z,100877.92
2018-07-17T06:50:47.874Z,100876.42
2018-07-17T06:55:43.037Z,100879.78
2018-07-17T07:00:37.995Z,100886.75
2018-07-17T07:05:32.887Z,100883.69
2018-07-17T07:10:28.054Z,100887.41
2018-07-17T07:15:22.824Z,100892.47
2018-07-17T07:20:17.763Z,100886.20
2018-07-17T07:25:12.717Z,100880.81
2018-07-17T07:30:07.732Z,100883.03
2018-07-17T07:35:02.735Z,100886.13
2018-07-17T07:39:57.577Z,100879.88
2018-07-17T07:44:52.266Z,100894.76
2018-07-17T07:49:47.053Z,100892.58
2018-07-17T07:54:41.809Z,100893.59
2018-07-17T07:59:36.348Z,100892.91
2018-07-17T08:04:31.568Z,100907.55
2018-07-17T08:09:26.377Z,100914.59
2018-07-17T08:14:21.565Z,100917.09
2018-07-17T08:19:16.682Z,100908.61
2018-07-17T08:24:11.495Z,100908.75
2018-07-17T08:29:06.553Z,100922.32
2018-07-17T08:34:01.741Z,100912.80
2018-07-17T08:38:56.555Z,100912.22
2018-07-17T08:43:51.450Z,100915.18
2018-07-17T08:48:46.881Z,100913.84
2018-07-17T08:53:42.004Z,100915.76
2018-07-17T08:58:36.835Z,100922.52
2018-07-17T09:03:31.601Z,100920.21
2018-07-17T09:08:26.315Z,100918.13
2018-07-17T09:13:21.067Z,100925.80
2018-07-17T09:18:15.946Z,100925.84
2018-07-17T09:23:11.242Z,100918.56
2018-07-17T09:28:06.873Z,100925.37
2018-07-17T09:33:02.053Z,100929.84
2018-07-17T09:37:56.821Z,100924.72
2018-07-17T09:42:51.906Z,100931.72
2018-07-17T09:47:46.691Z,100921.72
2018-07-17T09:52:41.703Z,100926.20
2018-07-17T09:57:36.442Z,100927.83
2018-07-17T10:02:31.817Z,100932.03
2018-07-17T10:07:27.214Z,100922.38
2018-07-17T10:12:22.263Z,100918.29
2018-07-17T10:17:17.346Z,100907.22
2018-07-17T10:22:12.178Z,100904.58
2018-07-17T10:27:08.608Z,100905.32
2018-07-17T10:32:03.441Z,100905.34
2018-07-17T10:36:58.551Z,100896.42
2018-07-17T10:41:53.880Z,100907.66
2018-07-17T10:46:48.726Z,100909.14
2018-07-17T10:51:43.894Z,100906.99
2018-07-17T10:56:38.876Z,100909.06
2018-07-17T11:01:34.038Z,100899.21
2018-07-17T11:06:28.932Z,100894.37
2018-07-17T11:11:24.072Z,100889.88
2018-07-17T11:16:18.565Z,100897.63
2018-07-17T11:21:14.523Z,100901.65
2018-07-17T11:26:09.402Z,100893.58
2018-07-17T11:31:04.703Z,100890.97
2018-07-17T11:36:00.246Z,100889.99
2018-07-17T11:40:55.250Z,100876.97
2018-07-17T11:45:50.854Z,100887.68
2018-07-17T11:50:45.856Z,100880.86
2018-07-17T11:55:41.314Z,100870.18
2018-07-17T12:00:36.295Z,100874.74
2018-07-17T12:05:32.544Z,100863.75
2018-07-17T12:10:27.591Z,100870.08
2018-07-17T12:15:23.016Z,100859.02
2018-07-17T12:20:17.911Z,100864.91
2018-07-17T12:25:13.080Z,100857.27
2018-07-17T12:30:08.449Z,100860.74
2018-07-17T12:35:03.152Z,100855.98
2018-07-17T12:39:59.097Z,100869.77
2018-07-17T12:44:53.994Z,100867.08
2018-07-17T12:49:48.885Z,100867.17
2018-07-17T12:54:43.790Z,100871.98
2018-07-17T12:59:38.551Z,100869.84
2018-07-17T13:04:33.362Z,100863.11
2018-07-17T13:09:28.231Z,100861.80
2018-07-17T13:14:23.133Z,100866.66
2018-07-17T13:19:18.741Z,100859.31
2018-07-17T13:24:13.618Z,100854.75
2018-07-17T13:29:08.422Z,100859.34
2018-07-17T13:34:03.517Z,100855.20
2018-07-17T13:38:58.414Z,100848.91
2018-07-17T13:43:53.122Z,100858.39
2018-07-17T13:48:49.122Z,100850.72
2018-07-17T13:53:44.532Z,100854.31
2018-07-17T13:58:39.530Z,100856.98
2018-07-17T14:03:34.956Z,100855.00
2018-07-17T14:08:29.767Z,100857.78
2018-07-17T14:13:24.504Z,100853.91
2018-07-17T14:18:19.367Z,100861.34
2018-07-17T14:23:14.209Z,100862.58
2018-07-17T14:28:09.110Z,100851.86
2018-07-17T14:33:06.969Z,100852.83
2018-07-17T14:38:01.637Z,100860.52
2018-07-17T14:42:56.990Z,100859.20
2018-07-17T14:47:52.142Z,100856.70
2018-07-17T14:52:47.221Z,100859.67
2018-07-17T14:57:41.998Z,100843.79
2018-07-17T15:02:37.197Z,100844.22
2018-07-17T15:07:32.208Z,100832.10
2018-07-17T15:12:27.740Z,100844.61
2018-07-17T15:17:22.558Z,100838.36
2018-07-17T15:22:17.315Z,100839.38
2018-07-17T15:27:12.654Z,100834.83
2018-07-17T15:32:07.760Z,100841.88
2018-07-17T15:37:03.170Z,100845.98
2018-07-17T15:41:58.021Z,100841.98
2018-07-17T15:46:52.873Z,100840.58
2018-07-17T15:51:47.657Z,100857.27
2018-07-17T15:56:42.383Z,100848.42
2018-07-17T16:01:36.890Z,100858.62
2018-07-17T16:06:31.746Z,100861.44
2018-07-17T16:11:26.570Z,100851.75
2018-07-17T16:16:21.684Z,100854.33
2018-07-17T16:21:16.594Z,100864.25
2018-07-17T16:26:11.523Z,100870.87
2018-07-17T16:31:06.671Z,100874.24
2018-07-17T16:36:01.721Z,100870.13
2018-07-17T16:40:56.530Z,100863.63
2018-07-17T16:45:51.302Z,100882.61
2018-07-17T16:50:46.756Z,100886.42
2018-07-17T16:55:41.293Z,100873.90
2018-07-17T17:00:36.514Z,100883.11
2018-07-17T17:05:31.520Z,100896.58
2018-07-17T17:10:27.161Z,100920.90
2018-07-17T17:15:22.176Z,100934.78
2018-07-17T17:20:17.208Z,100940.34
2018-07-17T17:25:14.262Z,100941.28
2018-07-17T17:30:10.404Z,100953.63
2018-07-17T17:35:06.622Z,100973.61
2018-07-17T17:40:02.885Z,100985.25
2018-07-17T17:44:59.335Z,100973.53
2018-07-17T17:49:55.636Z,100959.94
2018-07-17T17:54:51.501Z,100963.38
2018-07-17T17:59:48.268Z,100949.53
2018-07-17T18:04:42.970Z,100947.50
2018-07-17T18:09:37.488Z,100953.58
2018-07-17T18:14:32.742Z,100955.75
2018-07-17T18:19:27.275Z,100963.67
2018-07-17T18:24:21.837Z,100975.84
2018-07-17T18:29:16.366Z,100983.91
2018-07-17T18:34:12.589Z,101003.72
2018-07-17T18:50:14.288Z,101021.13
2018-07-17T18:55:10.531Z,101030.92
2018-07-17T19:00:08.061Z,101038.56
2018-07-17T19:05:04.961Z,101041.28
2018-07-17T19:10:02.941Z,101037.55
2018-07-17T19:14:57.442Z,101040.69
2018-07-17T19:19:51.974Z,101052.25
2018-07-17T19:24:46.203Z,101057.17
2018-07-17T19:29:40.977Z,101061.89
2018-07-17T19:34:35.909Z,101076.03
2018-07-17T19:39:30.384Z,101082.80
2018-07-17T19:44:25.170Z,101089.11
2018-07-17T19:49:19.792Z,101096.61
2018-07-17T19:54:14.658Z,101100.39
2018-07-17T19:59:09.189Z,101108.91
2018-07-17T20:04:03.747Z,101110.02
2018-07-17T20:08:58.219Z,101116.15
2018-07-17T20:13:52.744Z,101119.94
2018-07-17T20:18:47.392Z,101128.23
2018-07-17T20:23:42.142Z,101136.82
2018-07-17T20:28:36.795Z,101152.47
2018-07-17T20:33:31.380Z,101149.42
2018-07-17T20:38:26.034Z,101159.52
2018-07-17T20:43:20.570Z,101161.52
2018-07-17T20:48:15.171Z,101168.75
2018-07-17T20:53:09.761Z,101174.00
2018-07-17T20:58:04.260Z,101176.93
2018-07-17T21:02:58.914Z,101176.98
2018-07-17T21:07:53.440Z,101187.07
2018-07-17T21:12:48.207Z,101188.47
2018-07-17T21:17:42.850Z,101188.70
2018-07-17T21:22:37.532Z,101191.59
2018-07-17T21:27:32.005Z,101196.68
2018-07-17T21:32:27.646Z,101199.80
2018-07-17T21:37:22.333Z,101199.19
2018-07-17T21:42:16.627Z,101202.30
2018-07-17T21:47:12.091Z,101206.89
2018-07-17T21:52:06.816Z,101217.48
2018-07-17T21:57:04.238Z,101213.46
2018-07-17T22:01:58.877Z,101221.13
2018-07-17T22:06:53.239Z,101227.80
2018-07-17T22:11:47.787Z,101232.31
2018-07-17T22:16:42.003Z,101231.27
2018-07-17T22:21:36.710Z,101230.61
2018-07-17T22:26:31.446Z,101235.50
2018-07-17T22:31:27.094Z,101245.44
2018-07-17T22:36:21.653Z,101239.88
2018-07-17T22:41:16.318Z,101233.35
2018-07-17T22:46:11.025Z,101239.73
2018-07-17T22:51:05.714Z,101243.56
2018-07-17T22:56:00.306Z,101250.81
2018-07-17T23:00:54.847Z,101253.67
2018-07-17T23:05:49.426Z,101249.80
2018-07-17T23:10:44.080Z,101255.34
2018-07-17T23:15:39.162Z,101256.95
2018-07-17T23:20:33.516Z,101257.69
2018-07-17T23:25:31.225Z,101264.66
2018-07-17T23:30:25.957Z,101268.56
2018-07-17T23:35:21.732Z,101269.42
2018-07-17T23:40:16.582Z,101259.08
2018-07-17T23:45:11.064Z,101263.84
2018-07-17T23:50:06.043Z,101271.05
2018-07-17T23:55:00.762Z,101274.12
2018-07-17T23:59:55.657Z,101268.02
